Time;durP1;ratioP1;P1;durP2;ratioP2;P2;SDS_P1;SDS_P2;PMS_P1;PMS_P2;Temp;Humidity;BMP_temperature;BMP_pressure;BME280_temperature;BME280_humidity;BME280_pressure;Samples;Min_cycle;Max_cycle;Signal;HPM_P1;HPM_P2
2023/12/29 00:01:56;;;;;;;9.30;6.20;;;;;;;-147.86;100.00;-17609.17;105446;1263;72653;-51
2023/12/29 00:04:23;;;;;;;7.50;5.40;;;;;;;-147.86;100.00;-17609.17;105558;1262;62395;-55
2023/12/29 00:06:50;;;;;;;8.50;5.80;;;;;;;-147.86;100.00;-17609.17;105560;1257;60273;-54
2023/12/29 00:09:28;;;;;;;8.20;6.10;;;;;;;-147.86;100.00;-17609.17;105350;1257;73082;-53
2023/12/29 00:11:55;;;;;;;7.80;5.40;;;;;;;-147.86;100.00;-17609.17;105561;1262;64560;-54
2023/12/29 00:14:22;;;;;;;9.60;6.20;;;;;;;-147.86;100.00;-17609.17;105554;1257;72574;-52
2023/12/29 00:16:49;;;;;;;10.20;6.10;;;;;;;-147.86;100.00;-17609.17;105567;1262;61995;-52
2023/12/29 00:19:16;;;;;;;8.50;5.30;;;;;;;-147.86;100.00;-17609.17;105522;1257;60425;-55
2023/12/29 00:21:44;;;;;;;10.80;6.80;;;;;;;-147.86;100.00;-17609.17;105588;1261;73794;-54
2023/12/29 00:24:11;;;;;;;10.80;6.30;;;;;;;-147.86;100.00;-17609.17;105565;1261;63669;-54
2023/12/29 00:26:38;;;;;;;12.20;6.40;;;;;;;-147.86;100.00;-17609.17;105545;1262;71495;-51
2023/12/29 00:29:06;;;;;;;10.20;6.50;;;;;;;-147.86;100.00;-17609.17;105555;1262;61021;-51
2023/12/29 00:31:33;;;;;;;10.40;6.50;;;;;;;-147.86;100.00;-17609.17;105529;1257;60540;-57
2023/12/29 00:34:00;;;;;;;11.80;6.00;;;;;;;-147.86;100.00;-17609.17;105387;1263;73874;-51
2023/12/29 00:36:27;;;;;;;10.70;6.20;;;;;;;-147.86;100.00;-17609.17;105406;1263;64745;-55
2023/12/29 00:38:55;;;;;;;10.60;7.00;;;;;;;-147.86;100.00;-17609.17;105528;1262;71730;-52
2023/12/29 00:41:22;;;;;;;8.80;6.20;;;;;;;-147.86;100.00;-17609.17;105407;1260;60558;-54
2023/12/29 00:43:49;;;;;;;8.70;6.40;;;;;;;-147.86;100.00;-17609.17;105565;1257;60415;-52
2023/12/29 00:46:16;;;;;;;12.20;6.40;;;;;;;-147.86;100.00;-17609.17;105494;1262;74310;-51
2023/12/29 00:48:43;;;;;;;10.40;6.30;;;;;;;-147.86;100.00;-17609.17;105533;1262;64648;-54
2023/12/29 00:51:11;;;;;;;7.70;5.30;;;;;;;-147.86;100.00;-17609.17;105562;1261;71128;-52
2023/12/29 00:53:38;;;;;;;9.00;6.00;;;;;;;-147.86;100.00;-17609.17;105544;1257;60981;-54
2023/12/29 00:56:14;;;;;;;9.60;6.00;;;;;;;-147.86;100.00;-17609.17;105559;1257;60823;-53
2023/12/29 00:58:41;;;;;;;9.10;5.70;;;;;;;-147.86;100.00;-17609.17;105717;1259;73542;-52
2023/12/29 01:01:11;;;;;;;8.70;6.00;;;;;;;-147.86;100.00;-17609.17;105695;1259;64684;-55
2023/12/29 01:03:38;;;;;;;10.60;6.20;;;;;;;-147.86;100.00;-17609.17;105852;1254;72712;-56
2023/12/29 01:06:06;;;;;;;8.50;6.20;;;;;;;-147.86;100.00;-17609.17;105860;1259;61123;-56
2023/12/29 01:08:33;;;;;;;9.70;6.20;;;;;;;-147.86;100.00;-17609.17;105849;1254;60536;-55
2023/12/29 01:11:00;;;;;;;8.70;6.30;;;;;;;-147.86;100.00;-17609.17;105895;1254;72683;-55
2023/12/29 01:13:27;;;;;;;9.00;6.50;;;;;;;-147.86;100.00;-17609.17;105925;1256;64778;-53
2023/12/29 01:15:55;;;;;;;9.50;6.20;;;;;;;-147.86;100.00;-17609.17;105835;1259;72634;-55
2023/12/29 01:18:22;;;;;;;8.60;6.10;;;;;;;-147.86;100.00;-17609.17;105837;1259;61884;-54
2023/12/29 01:20:49;;;;;;;8.90;6.00;;;;;;;-147.86;100.00;-17609.17;105641;1254;60591;-52
2023/12/29 01:23:17;;;;;;;8.80;6.30;;;;;;;-147.86;100.00;-17609.17;105815;1258;73818;-56
2023/12/29 01:25:44;;;;;;;8.90;5.90;;;;;;;-147.86;100.00;-17609.17;105868;1259;64675;-53
2023/12/29 01:28:11;;;;;;;8.40;6.40;;;;;;;-147.86;100.00;-17609.17;105903;1257;72451;-54
2023/12/29 01:30:38;;;;;;;9.20;5.90;;;;;;;-147.86;100.00;-17609.17;105898;1258;60974;-54
2023/12/29 01:33:06;;;;;;;11.70;6.60;;;;;;;-147.86;100.00;-17609.17;105849;1253;60533;-55
2023/12/29 01:35:33;;;;;;;7.80;6.20;;;;;;;-147.86;100.00;-17609.17;105866;1254;73912;-56
2023/12/29 01:38:00;;;;;;;6.80;5.80;;;;;;;-147.86;100.00;-17609.17;105843;1254;63473;-57
2023/12/29 01:40:28;;;;;;;9.10;6.30;;;;;;;-147.86;100.00;-17609.17;105762;1254;72485;-56
2023/12/29 01:42:55;;;;;;;10.10;6.10;;;;;;;-147.86;100.00;-17609.17;105839;1254;61132;-57
2023/12/29 01:45:23;;;;;;;9.00;6.80;;;;;;;-147.86;100.00;-17609.17;105937;1254;60479;-54
2023/12/29 01:47:50;;;;;;;11.60;6.40;;;;;;;-147.86;100.00;-17609.17;105844;1257;73889;-54
2023/12/29 01:50:23;;;;;;;7.20;5.80;;;;;;;-147.86;100.00;-17609.17;105950;1259;64984;-55
2023/12/29 01:52:50;;;;;;;7.10;5.80;;;;;;;-147.86;100.00;-17609.17;105773;1259;72720;-54
2023/12/29 01:55:18;;;;;;;10.30;5.80;;;;;;;-147.86;100.00;-17609.17;105840;1266;61783;-52
2023/12/29 01:57:45;;;;;;;8.40;6.60;;;;;;;-147.86;100.00;-17609.17;105847;1257;60338;-54
2023/12/29 02:00:13;;;;;;;11.20;6.70;;;;;;;-147.86;100.00;-17609.17;105592;1261;73729;-56
2023/12/29 02:02:40;;;;;;;7.80;6.50;;;;;;;-147.86;100.00;-17609.17;105705;1269;63204;-57
2023/12/29 02:05:07;;;;;;;8.60;6.50;;;;;;;-147.86;100.00;-17609.17;105676;1259;72493;-52
2023/12/29 02:07:34;;;;;;;6.80;5.70;;;;;;;-147.86;100.00;-17609.17;105764;1260;61163;-51
2023/12/29 02:10:02;;;;;;;7.20;6.00;;;;;;;-147.86;100.00;-17609.17;105723;1254;60565;-57
2023/12/29 02:12:32;;;;;;;9.40;6.30;;;;;;;-147.86;100.00;-17609.17;105869;1254;74317;-56
2023/12/29 02:14:59;;;;;;;6.90;5.70;;;;;;;-147.86;100.00;-17609.17;105848;1259;64667;-50
2023/12/29 02:17:33;;;;;;;8.50;6.30;;;;;;;-147.86;100.00;-17609.17;105829;1257;72580;-55
2023/12/29 02:20:00;;;;;;;9.20;6.20;;;;;;;-147.86;100.00;-17609.17;105698;1260;60986;-53
2023/12/29 02:22:28;;;;;;;9.20;6.70;;;;;;;-147.86;100.00;-17609.17;105710;1253;60448;-50
2023/12/29 02:24:55;;;;;;;8.10;6.30;;;;;;;-147.86;100.00;-17609.17;105689;1254;73903;-56
2023/12/29 02:27:32;;;;;;;8.40;6.20;;;;;;;-147.86;100.00;-17609.17;105834;1257;63650;-54
2023/12/29 02:30:11;;;;;;;8.20;6.00;;;;;;;-147.86;100.00;-17609.17;105740;1257;72704;-56
2023/12/29 02:32:40;;;;;;;8.90;6.50;;;;;;;-147.86;100.00;-17609.17;105900;1259;60425;-55
2023/12/29 02:35:10;;;;;;;9.70;6.70;;;;;;;-147.86;100.00;-17609.17;105857;1257;60585;-56
2023/12/29 02:37:38;;;;;;;10.20;7.20;;;;;;;-147.86;100.00;-17609.17;105875;1254;72436;-54
2023/12/29 02:40:07;;;;;;;10.80;7.00;;;;;;;-147.86;100.00;-17609.17;105752;1254;63356;-55
2023/12/29 02:42:34;;;;;;;9.60;6.90;;;;;;;-147.86;100.00;-17609.17;105881;1258;72321;-56
2023/12/29 02:45:02;;;;;;;8.50;6.80;;;;;;;-147.86;100.00;-17609.17;105675;1259;61066;-54
2023/12/29 02:47:29;;;;;;;11.60;6.30;;;;;;;-147.86;100.00;-17609.17;105709;1254;60545;-54
2023/12/29 02:49:57;;;;;;;10.50;6.80;;;;;;;-147.86;100.00;-17609.17;105863;1260;73869;-54
2023/12/29 02:52:24;;;;;;;11.30;7.20;;;;;;;-147.86;100.00;-17609.17;105897;1260;64595;-54
2023/12/29 02:54:51;;;;;;;9.90;7.00;;;;;;;-147.86;100.00;-17609.17;105903;1258;72604;-56
2023/12/29 02:57:18;;;;;;;11.00;7.50;;;;;;;-147.86;100.00;-17609.17;105670;1259;61245;-57
2023/12/29 02:59:45;;;;;;;9.30;7.00;;;;;;;-147.86;100.00;-17609.17;105743;1260;60443;-54
2023/12/29 03:02:12;;;;;;;10.30;6.80;;;;;;;-147.86;100.00;-17609.17;105886;1257;73774;-55
2023/12/29 03:04:39;;;;;;;11.10;7.20;;;;;;;-147.86;100.00;-17609.17;105724;1257;64652;-52
2023/12/29 03:07:06;;;;;;;9.00;7.20;;;;;;;-147.86;100.00;-17609.17;105666;1260;72539;-52
2023/12/29 03:09:33;;;;;;;10.00;7.50;;;;;;;-147.86;100.00;-17609.17;105782;1260;60875;-54
2023/12/29 03:12:00;;;;;;;10.60;7.90;;;;;;;-147.86;100.00;-17609.17;105795;1253;60442;-52
2023/12/29 03:14:26;;;;;;;8.80;7.00;;;;;;;-147.86;100.00;-17609.17;105911;1256;73881;-55
2023/12/29 03:16:53;;;;;;;10.60;8.10;;;;;;;-147.86;100.00;-17609.17;105687;1259;64679;-52
2023/12/29 03:19:20;;;;;;;13.60;7.60;;;;;;;-147.86;100.00;-17609.17;105654;1255;72715;-54
2023/12/29 03:21:48;;;;;;;12.00;7.50;;;;;;;-147.86;100.00;-17609.17;105818;1257;61112;-54
2023/12/29 03:24:14;;;;;;;10.00;7.40;;;;;;;-147.86;100.00;-17609.17;105694;1259;61067;-54
2023/12/29 03:26:41;;;;;;;13.10;7.70;;;;;;;-147.86;100.00;-17609.17;105852;1258;74450;-54
2023/12/29 03:29:10;;;;;;;16.80;8.60;;;;;;;-147.86;100.00;-17609.17;105698;1259;64779;-56
2023/12/29 03:31:37;;;;;;;14.70;7.10;;;;;;;-147.86;100.00;-17609.17;105850;1257;72573;-55
2023/12/29 03:34:04;;;;;;;10.10;7.80;;;;;;;-147.86;100.00;-17609.17;105832;1257;61904;-57
2023/12/29 03:36:31;;;;;;;13.10;8.40;;;;;;;-147.86;100.00;-17609.17;105876;1256;60447;-56
2023/12/29 03:38:58;;;;;;;9.30;7.70;;;;;;;-147.86;100.00;-17609.17;105582;1254;73828;-57
2023/12/29 03:41:25;;;;;;;10.80;7.90;;;;;;;-147.86;100.00;-17609.17;105542;1257;64816;-57
2023/12/29 03:43:52;;;;;;;13.60;8.00;;;;;;;-147.86;100.00;-17609.17;105659;1258;72520;-52
2023/12/29 03:46:19;;;;;;;10.80;7.80;;;;;;;-147.86;100.00;-17609.17;105779;1259;61309;-58
2023/12/29 03:48:46;;;;;;;15.00;8.60;;;;;;;-147.86;100.00;-17609.17;105683;1255;60504;-57
2023/12/29 03:51:14;;;;;;;12.30;9.00;;;;;;;-147.86;100.00;-17609.17;105924;1257;73923;-56
2023/12/29 03:53:41;;;;;;;10.70;7.80;;;;;;;-147.86;100.00;-17609.17;105693;1261;64805;-58
2023/12/29 03:56:16;;;;;;;13.20;8.60;;;;;;;-147.86;100.00;-17609.17;105743;1259;72672;-53
2023/12/29 03:58:43;;;;;;;11.10;8.50;;;;;;;-147.86;100.00;-17609.17;105748;1260;60916;-56
2023/12/29 04:01:13;;;;;;;11.00;7.80;;;;;;;-147.86;100.00;-17609.17;105846;1256;60472;-55
2023/12/29 04:03:40;;;;;;;14.00;8.10;;;;;;;-147.86;100.00;-17609.17;105664;1259;73849;-54
2023/12/29 04:06:08;;;;;;;12.80;8.30;;;;;;;-147.86;100.00;-17609.17;105880;1257;64662;-55
2023/12/29 04:08:35;;;;;;;12.40;8.10;;;;;;;-147.86;100.00;-17609.17;105839;1259;72474;-53
2023/12/29 04:11:03;;;;;;;14.20;8.90;;;;;;;-147.86;100.00;-17609.17;105913;1256;60527;-53
2023/12/29 04:13:30;;;;;;;14.40;9.10;;;;;;;-147.86;100.00;-17609.17;105878;1255;60440;-52
2023/12/29 04:15:57;;;;;;;12.70;7.70;;;;;;;-147.86;100.00;-17609.17;105908;1256;74266;-55
2023/12/29 04:18:24;;;;;;;15.20;9.60;;;;;;;-147.86;100.00;-17609.17;105807;1256;64589;-54
2023/12/29 04:20:51;;;;;;;12.20;8.30;;;;;;;-147.86;100.00;-17609.17;105837;1259;72699;-53
2023/12/29 04:23:18;;;;;;;17.90;8.60;;;;;;;-147.86;100.00;-17609.17;105841;1259;61157;-55
2023/12/29 04:25:45;;;;;;;12.40;8.80;;;;;;;-147.86;100.00;-17609.17;105816;1257;60450;-54
2023/12/29 04:28:12;;;;;;;19.90;9.00;;;;;;;-147.86;100.00;-17609.17;105842;1255;73662;-55
2023/12/29 04:30:39;;;;;;;11.60;8.70;;;;;;;-147.86;100.00;-17609.17;105851;1257;64798;-55
2023/12/29 04:33:06;;;;;;;14.00;8.50;;;;;;;-147.86;100.00;-17609.17;105801;1256;72465;-52
2023/12/29 04:35:33;;;;;;;11.90;8.30;;;;;;;-147.86;100.00;-17609.17;105845;1257;61291;-53
2023/12/29 04:38:02;;;;;;;10.80;7.80;;;;;;;-147.86;100.00;-17609.17;105869;1255;60591;-52
2023/12/29 04:40:29;;;;;;;16.10;8.30;;;;;;;-147.86;100.00;-17609.17;105882;1255;73717;-50
2023/12/29 04:42:57;;;;;;;13.90;9.40;;;;;;;-147.86;100.00;-17609.17;105640;1260;64588;-56
2023/12/29 04:45:24;;;;;;;15.10;8.60;;;;;;;-147.86;100.00;-17609.17;105833;1254;71162;-51
2023/12/29 04:47:51;;;;;;;11.70;8.90;;;;;;;-147.86;100.00;-17609.17;105845;1257;61192;-53
2023/12/29 04:50:18;;;;;;;15.20;9.30;;;;;;;-147.86;100.00;-17609.17;105836;1254;60441;-55
2023/12/29 04:52:46;;;;;;;13.00;9.30;;;;;;;-147.86;100.00;-17609.17;105855;1257;74691;-55
2023/12/29 04:55:13;;;;;;;14.00;9.00;;;;;;;-147.86;100.00;-17609.17;105891;1256;64604;-51
2023/12/29 04:57:40;;;;;;;12.20;8.40;;;;;;;-147.86;100.00;-17609.17;105803;1254;72602;-53
2023/12/29 05:00:08;;;;;;;13.50;9.60;;;;;;;-147.86;100.00;-17609.17;105852;1257;61039;-53
2023/12/29 05:02:36;;;;;;;13.00;9.60;;;;;;;-147.86;100.00;-17609.17;105884;1256;60536;-56
2023/12/29 05:05:03;;;;;;;12.80;9.30;;;;;;;-147.86;100.00;-17609.17;105872;1257;73752;-55
2023/12/29 05:07:30;;;;;;;13.90;9.10;;;;;;;-147.86;100.00;-17609.17;105902;1254;63211;-53
2023/12/29 05:09:58;;;;;;;15.10;9.30;;;;;;;-147.86;100.00;-17609.17;105869;1254;72648;-55
2023/12/29 05:12:25;;;;;;;16.90;9.60;;;;;;;-147.86;100.00;-17609.17;105822;1257;60422;-55
2023/12/29 05:14:52;;;;;;;13.00;9.40;;;;;;;-147.86;100.00;-17609.17;105788;1254;60444;-54
2023/12/29 05:17:19;;;;;;;13.50;9.00;;;;;;;-147.86;100.00;-17609.17;105884;1258;73833;-54
2023/12/29 05:19:46;;;;;;;14.80;9.90;;;;;;;-147.86;100.00;-17609.17;105859;1257;64658;-54
2023/12/29 05:22:17;;;;;;;18.90;9.60;;;;;;;-147.86;100.00;-17609.17;105787;1254;72550;-52
2023/12/29 05:24:45;;;;;;;16.40;9.60;;;;;;;-147.86;100.00;-17609.17;105858;1257;60382;-52
2023/12/29 05:27:12;;;;;;;16.60;9.80;;;;;;;-147.86;100.00;-17609.17;105818;1254;60450;-54
2023/12/29 05:29:39;;;;;;;17.20;10.90;;;;;;;-147.86;100.00;-17609.17;105823;1254;73835;-55
2023/12/29 05:32:06;;;;;;;12.30;9.40;;;;;;;-147.86;100.00;-17609.17;105864;1256;64500;-52
2023/12/29 05:34:33;;;;;;;11.90;9.00;;;;;;;-147.86;100.00;-17609.17;105783;1257;72365;-55
2023/12/29 05:37:00;;;;;;;17.00;10.60;;;;;;;-147.86;100.00;-17609.17;105889;1266;61769;-53
2023/12/29 05:39:27;;;;;;;13.10;9.50;;;;;;;-147.86;100.00;-17609.17;105873;1253;60445;-55
2023/12/29 05:41:54;;;;;;;15.40;10.30;;;;;;;-147.86;100.00;-17609.17;105859;1254;73834;-52
2023/12/29 05:44:21;;;;;;;17.90;11.00;;;;;;;-147.86;100.00;-17609.17;105819;1257;64763;-55
2023/12/29 05:46:48;;;;;;;17.70;10.40;;;;;;;-147.86;100.00;-17609.17;105838;1255;72455;-56
2023/12/29 05:49:15;;;;;;;15.50;10.70;;;;;;;-147.86;100.00;-17609.17;105855;1258;61172;-57
2023/12/29 05:51:43;;;;;;;14.70;10.10;;;;;;;-147.86;100.00;-17609.17;105797;1257;60348;-54
2023/12/29 05:54:10;;;;;;;18.80;9.80;;;;;;;-147.86;100.00;-17609.17;105873;1253;72363;-54
2023/12/29 05:56:37;;;;;;;14.00;10.60;;;;;;;-147.86;100.00;-17609.17;105821;1257;63267;-55
2023/12/29 05:59:04;;;;;;;16.50;10.90;;;;;;;-147.86;100.00;-17609.17;105858;1256;72663;-52
2023/12/29 06:01:31;;;;;;;16.80;10.50;;;;;;;-147.86;100.00;-17609.17;105825;1257;61139;-53
2023/12/29 06:03:58;;;;;;;14.70;9.90;;;;;;;-147.86;100.00;-17609.17;105816;1254;60472;-55
2023/12/29 06:06:25;;;;;;;14.40;9.70;;;;;;;-147.86;100.00;-17609.17;105849;1258;73781;-52
2023/12/29 06:08:52;;;;;;;14.30;9.90;;;;;;;-147.86;100.00;-17609.17;105843;1254;63453;-50
2023/12/29 06:11:19;;;;;;;16.90;10.50;;;;;;;-147.86;100.00;-17609.17;105846;1254;72608;-53
2023/12/29 06:13:46;;;;;;;15.90;10.70;;;;;;;-147.86;100.00;-17609.17;105882;1257;61139;-55
2023/12/29 06:16:20;;;;;;;17.10;10.30;;;;;;;-147.86;100.00;-17609.17;105857;1254;60553;-53
2023/12/29 06:18:48;;;;;;;17.20;10.30;;;;;;;-147.86;100.00;-17609.17;105880;1257;73795;-56
2023/12/29 06:21:15;;;;;;;15.00;9.90;;;;;;;-147.86;100.00;-17609.17;105817;1256;64682;-54
2023/12/29 06:23:42;;;;;;;13.40;10.00;;;;;;;-147.86;100.00;-17609.17;105839;1256;72461;-55
2023/12/29 06:26:19;;;;;;;14.40;9.80;;;;;;;-147.86;100.00;-17609.17;105871;1256;60344;-54
2023/12/29 06:28:46;;;;;;;15.10;10.30;;;;;;;-147.86;100.00;-17609.17;105889;1253;60507;-56
2023/12/29 06:31:13;;;;;;;14.50;10.50;;;;;;;-147.86;100.00;-17609.17;105906;1266;73757;-52
2023/12/29 06:33:41;;;;;;;16.10;9.90;;;;;;;-147.86;100.00;-17609.17;105875;1256;64720;-55
2023/12/29 06:36:10;;;;;;;14.20;10.00;;;;;;;-147.86;100.00;-17609.17;105962;1254;71204;-55
2023/12/29 06:38:37;;;;;;;17.10;10.70;;;;;;;-147.86;100.00;-17609.17;105891;1256;60409;-54
2023/12/29 06:41:04;;;;;;;15.60;9.50;;;;;;;-147.86;100.00;-17609.17;105891;1254;60607;-55
2023/12/29 06:43:31;;;;;;;14.40;10.40;;;;;;;-147.86;100.00;-17609.17;105864;1254;73844;-53
2023/12/29 06:45:58;;;;;;;16.00;10.80;;;;;;;-147.86;100.00;-17609.17;105875;1257;63621;-56
2023/12/29 06:48:25;;;;;;;14.70;9.20;;;;;;;-147.86;100.00;-17609.17;105833;1254;71630;-55
2023/12/29 06:50:52;;;;;;;14.40;9.80;;;;;;;-147.86;100.00;-17609.17;105957;1257;60352;-55
2023/12/29 06:53:20;;;;;;;16.60;9.80;;;;;;;-147.86;100.00;-17609.17;105852;1254;60447;-56
2023/12/29 06:55:47;;;;;;;19.60;11.20;;;;;;;-147.86;100.00;-17609.17;105914;1256;73821;-55
2023/12/29 06:58:14;;;;;;;14.70;9.80;;;;;;;-147.86;100.00;-17609.17;105887;1257;64887;-59
2023/12/29 07:00:41;;;;;;;14.20;10.40;;;;;;;-147.86;100.00;-17609.17;105837;1254;72592;-54
2023/12/29 07:03:14;;;;;;;17.60;10.00;;;;;;;-147.86;100.00;-17609.17;105832;1257;61173;-56
2023/12/29 07:05:40;;;;;;;16.00;9.60;;;;;;;-147.86;100.00;-17609.17;105732;1261;60539;-58
2023/12/29 07:08:08;;;;;;;15.40;10.20;;;;;;;-147.86;100.00;-17609.17;105794;1252;72371;-55
2023/12/29 07:10:35;;;;;;;15.90;10.80;;;;;;;-147.86;100.00;-17609.17;105755;1257;64576;-56
2023/12/29 07:13:02;;;;;;;16.70;10.40;;;;;;;-147.86;100.00;-17609.17;105699;1254;72688;-56
2023/12/29 07:15:30;;;;;;;14.40;10.40;;;;;;;-147.86;100.00;-17609.17;105573;1259;61580;-53
2023/12/29 07:17:57;;;;;;;16.50;9.70;;;;;;;-147.86;100.00;-17609.17;105674;1253;60427;-52
2023/12/29 07:20:25;;;;;;;16.50;10.80;;;;;;;-147.86;100.00;-17609.17;105807;1254;73829;-56
2023/12/29 07:22:54;;;;;;;17.60;10.60;;;;;;;-147.86;100.00;-17609.17;105915;1256;64766;-60
2023/12/29 07:25:21;;;;;;;14.80;10.40;;;;;;;-147.86;100.00;-17609.17;105917;1254;71389;-59
2023/12/29 07:27:48;;;;;;;16.70;10.70;;;;;;;-147.86;100.00;-17609.17;105810;1257;62337;-54
2023/12/29 07:30:16;;;;;;;16.40;9.70;;;;;;;-147.86;100.00;-17609.17;105800;1252;60405;-57
2023/12/29 07:32:44;;;;;;;14.70;10.30;;;;;;;-147.86;100.00;-17609.17;105898;1257;73874;-58
2023/12/29 07:35:15;;;;;;;17.50;10.20;;;;;;;-147.86;100.00;-17609.17;105842;1257;64605;-54
2023/12/29 07:37:46;;;;;;;17.20;10.40;;;;;;;-147.86;100.00;-17609.17;105821;1254;73322;-55
2023/12/29 07:40:13;;;;;;;16.70;11.20;;;;;;;-147.86;100.00;-17609.17;105855;1257;60628;-55
2023/12/29 07:42:41;;;;;;;19.10;11.20;;;;;;;-147.86;100.00;-17609.17;105836;1254;60430;-56
2023/12/29 07:45:09;;;;;;;16.20;9.80;;;;;;;-147.86;100.00;-17609.17;105787;1257;73818;-54
2023/12/29 07:47:36;;;;;;;15.00;10.10;;;;;;;-147.86;100.00;-17609.17;105881;1254;63573;-53
2023/12/29 07:50:05;;;;;;;15.00;10.50;;;;;;;-147.86;100.00;-17609.17;105863;1254;72482;-56
2023/12/29 07:52:32;;;;;;;14.70;10.30;;;;;;;-147.86;100.00;-17609.17;105871;1254;60318;-55
2023/12/29 07:55:00;;;;;;;14.70;9.50;;;;;;;-147.86;100.00;-17609.17;105842;1253;60428;-54
2023/12/29 07:57:27;;;;;;;15.10;10.60;;;;;;;-147.86;100.00;-17609.17;105801;1257;73881;-54
2023/12/29 07:59:54;;;;;;;15.00;10.50;;;;;;;-147.86;100.00;-17609.17;105859;1257;64691;-55
2023/12/29 08:02:21;;;;;;;13.50;10.60;;;;;;;-147.86;100.00;-17609.17;105804;1254;72591;-54
2023/12/29 08:04:48;;;;;;;15.30;10.30;;;;;;;-147.86;100.00;-17609.17;105863;1257;60427;-56
2023/12/29 08:07:15;;;;;;;15.10;10.50;;;;;;;-147.86;100.00;-17609.17;105871;1253;60508;-57
2023/12/29 08:09:42;;;;;;;15.40;10.40;;;;;;;-147.86;100.00;-17609.17;105845;1254;73776;-51
2023/12/29 08:12:09;;;;;;;16.60;10.50;;;;;;;-147.86;100.00;-17609.17;105827;1254;64489;-55
2023/12/29 08:14:36;;;;;;;16.50;10.10;;;;;;;-147.86;100.00;-17609.17;105824;1254;71359;-55
2023/12/29 08:17:03;;;;;;;15.30;10.20;;;;;;;-147.86;100.00;-17609.17;105834;1257;60421;-56
2023/12/29 08:19:30;;;;;;;16.70;10.50;;;;;;;-147.86;100.00;-17609.17;105867;1253;60440;-55
2023/12/29 08:21:57;;;;;;;15.70;10.00;;;;;;;-147.86;100.00;-17609.17;105572;1257;380944;-54
2023/12/29 08:26:28;;;;;;;15.40;9.90;;;;;;;-147.86;100.00;-17609.17;103083;1288;603457;-55
2023/12/29 08:28:55;;;;;;;16.40;10.60;;;;;;;-147.86;100.00;-17609.17;105162;1264;59151;-53
2023/12/29 08:31:23;;;;;;;16.20;10.00;;;;;;;-147.86;100.00;-17609.17;105191;1264;60376;-54
2023/12/29 08:33:50;;;;;;;14.30;9.90;;;;;;;-147.86;100.00;-17609.17;105173;1269;72128;-51
2023/12/29 08:36:20;;;;;;;15.90;10.10;;;;;;;-147.86;100.00;-17609.17;105195;1268;64696;-57
2023/12/29 08:38:47;;;;;;;15.90;9.80;;;;;;;-147.86;100.00;-17609.17;105040;1269;287793;-56
2023/12/29 08:41:14;;;;;;;19.10;10.80;;;;;;;-147.86;100.00;-17609.17;105291;1267;59346;-53
2023/12/29 08:43:41;;;;;;;15.50;10.20;;;;;;;-147.86;100.00;-17609.17;105178;1264;60239;-54
2023/12/29 08:46:08;;;;;;;17.00;10.10;;;;;;;-147.86;100.00;-17609.17;105222;1266;71128;-56
2023/12/29 08:48:35;;;;;;;14.60;10.80;;;;;;;-147.86;100.00;-17609.17;105193;1266;64730;-54
2023/12/29 08:51:03;;;;;;;14.70;9.80;;;;;;;-147.86;100.00;-17609.17;105216;1264;72593;-53
2023/12/29 08:53:33;;;;;;;15.90;10.80;;;;;;;-147.86;100.00;-17609.17;105192;1267;60295;-57
2023/12/29 08:56:01;;;;;;;16.70;11.20;;;;;;;-147.86;100.00;-17609.17;105220;1264;60311;-55
2023/12/29 08:58:29;;;;;;;17.00;11.20;;;;;;;-147.86;100.00;-17609.17;105170;1267;72903;-57
2023/12/29 09:00:56;;;;;;;16.00;11.20;;;;;;;-147.86;100.00;-17609.17;105244;1267;64669;-54
2023/12/29 09:03:24;;;;;;;20.50;11.50;;;;;;;-147.86;100.00;-17609.17;105174;1264;71211;-54
2023/12/29 09:05:51;;;;;;;16.70;10.80;;;;;;;-147.86;100.00;-17609.17;105177;1269;60406;-57
2023/12/29 09:08:17;;;;;;;17.80;11.60;;;;;;;-147.86;100.00;-17609.17;105227;1264;60159;-55
2023/12/29 09:10:44;;;;;;;18.90;10.90;;;;;;;-147.86;100.00;-17609.17;105229;1267;73040;-55
2023/12/29 09:13:12;;;;;;;15.70;11.20;;;;;;;-147.86;100.00;-17609.17;105205;1267;64770;-52
2023/12/29 09:15:40;;;;;;;18.90;11.90;;;;;;;-147.86;100.00;-17609.17;105248;1263;72493;-56
2023/12/29 09:18:07;;;;;;;16.50;10.70;;;;;;;-147.86;100.00;-17609.17;105617;1260;60293;-55
2023/12/29 09:20:34;;;;;;;18.20;11.70;;;;;;;-147.86;100.00;-17609.17;105648;1260;60065;-53
2023/12/29 09:23:03;;;;;;;14.50;11.00;;;;;;;-147.86;100.00;-17609.17;105575;1260;73038;-52
2023/12/29 09:25:30;;;;;;;19.30;11.60;;;;;;;-147.86;100.00;-17609.17;105622;1260;64718;-53
2023/12/29 09:27:58;;;;;;;15.60;11.40;;;;;;;-147.86;100.00;-17609.17;105620;1257;72613;-54
2023/12/29 09:30:26;;;;;;;19.00;12.00;;;;;;;-147.86;100.00;-17609.17;105662;1257;60357;-55
2023/12/29 09:32:52;;;;;;;16.10;11.20;;;;;;;-147.86;100.00;-17609.17;105634;1260;60259;-53
2023/12/29 09:35:20;;;;;;;16.30;11.30;;;;;;;-147.86;100.00;-17609.17;105255;1257;72994;-56
2023/12/29 09:37:48;;;;;;;16.90;11.40;;;;;;;-147.86;100.00;-17609.17;105689;1258;64756;-54
2023/12/29 09:40:15;;;;;;;15.80;10.80;;;;;;;-147.86;100.00;-17609.17;105889;1256;71069;-54
2023/12/29 09:42:46;;;;;;;17.20;11.40;;;;;;;-147.86;100.00;-17609.17;105838;1257;60207;-57
2023/12/29 09:45:13;;;;;;;20.00;11.50;;;;;;;-147.86;100.00;-17609.17;105879;1253;59967;-56
2023/12/29 09:47:42;;;;;;;16.40;11.50;;;;;;;-147.86;100.00;-17609.17;105748;1254;73246;-59
2023/12/29 09:50:13;;;;;;;15.00;10.90;;;;;;;-147.86;100.00;-17609.17;105843;1257;64505;-52
2023/12/29 09:52:40;;;;;;;22.40;11.20;;;;;;;-147.86;100.00;-17609.17;105834;1257;71685;-54
2023/12/29 09:55:10;;;;;;;16.40;11.00;;;;;;;-147.86;100.00;-17609.17;105857;1258;60269;-52
2023/12/29 09:57:38;;;;;;;18.50;11.00;;;;;;;-147.86;100.00;-17609.17;105836;1253;60192;-55
2023/12/29 10:00:07;;;;;;;16.10;11.10;;;;;;;-147.86;100.00;-17609.17;105849;1254;73029;-52
2023/12/29 10:02:37;;;;;;;17.30;11.80;;;;;;;-147.86;100.00;-17609.17;105676;1256;64496;-54
2023/12/29 10:05:05;;;;;;;16.70;10.90;;;;;;;-147.86;100.00;-17609.17;105829;1254;74033;-54
2023/12/29 10:07:37;;;;;;;17.20;11.10;;;;;;;-147.86;100.00;-17609.17;105740;1254;59675;-53
2023/12/29 10:10:06;;;;;;;16.60;11.90;;;;;;;-147.86;100.00;-17609.17;105921;1253;59551;-53
2023/12/29 10:12:33;;;;;;;14.30;11.30;;;;;;;-147.86;100.00;-17609.17;105903;1254;72909;-53
2023/12/29 10:15:20;;;;;;;15.30;10.40;;;;;;;-147.86;100.00;-17609.17;105718;1259;65088;-54
2023/12/29 10:18:05;;;;;;;11.20;9.60;;;;;;;-147.86;100.00;-17609.17;105885;1254;72612;-54
2023/12/29 10:20:38;;;;;;;14.90;10.20;;;;;;;-147.86;100.00;-17609.17;105916;1256;60174;-52
2023/12/29 10:23:08;;;;;;;17.70;11.00;;;;;;;-147.86;100.00;-17609.17;105901;1253;60336;-54
2023/12/29 10:25:36;;;;;;;15.20;10.40;;;;;;;-147.86;100.00;-17609.17;105878;1256;72988;-52
2023/12/29 10:28:04;;;;;;;16.20;11.00;;;;;;;-147.86;100.00;-17609.17;105986;1257;64734;-51
2023/12/29 10:30:31;;;;;;;13.90;10.80;;;;;;;-147.86;100.00;-17609.17;105977;1254;71857;-54
2023/12/29 10:33:03;;;;;;;15.40;10.00;;;;;;;-147.86;100.00;-17609.17;105889;1253;61959;-54
2023/12/29 10:35:30;;;;;;;16.50;9.90;;;;;;;-147.86;100.00;-17609.17;105922;1254;60266;-56
2023/12/29 10:38:11;;;;;;;13.90;10.20;;;;;;;-147.86;100.00;-17609.17;105873;1257;72902;-55
2023/12/29 10:40:40;;;;;;;16.80;11.30;;;;;;;-147.86;100.00;-17609.17;105957;1254;63424;-55
2023/12/29 10:43:09;;;;;;;15.40;10.60;;;;;;;-147.86;100.00;-17609.17;105892;1253;72580;-53
2023/12/29 10:45:36;;;;;;;18.60;11.30;;;;;;;-147.86;100.00;-17609.17;105918;1254;59788;-53
2023/12/29 10:48:05;;;;;;;14.50;10.20;;;;;;;-147.86;100.00;-17609.17;105940;1253;60292;-52
2023/12/29 10:50:42;;;;;;;16.20;10.30;;;;;;;-147.86;100.00;-17609.17;105910;1252;72050;-54